Time;durP1;ratioP1;P1;durP2;ratioP2;P2;SDS_P1;SDS_P2;PMS_P1;PMS_P2;Temp;Humidity;BMP_temperature;BMP_pressure;BME280_temperature;BME280_humidity;BME280_pressure;Samples;Min_cycle;Max_cycle;Signal;HPM_P1;HPM_P2
2022/11/16 00:01:17;;;;;;;23.95;19.27;;;;;;;22.30;43.33;94673.16;4967313;28;20135;-66
2022/11/16 00:03:43;;;;;;;22.88;18.42;;;;;;;20.86;43.15;94437.09;4989404;28;20073;-63
2022/11/16 00:06:09;;;;;;;24.23;19.55;;;;;;;22.22;43.30;94650.47;4975347;28;20662;-66
2022/11/16 00:08:40;;;;;;;23.35;18.98;;;;;;;22.23;43.18;94641.09;4993443;28;20042;-65
2022/11/16 00:11:13;;;;;;;24.23;18.90;;;;;;;22.10;43.38;94670.84;4997108;28;20081;-66
2022/11/16 00:13:39;;;;;;;24.25;19.17;;;;;;;22.25;43.34;94649.47;4985550;28;20038;-64
2022/11/16 00:16:05;;;;;;;24.08;19.13;;;;;;;20.69;42.88;94428.34;4963380;28;20050;-63
2022/11/16 00:18:31;;;;;;;23.38;19.52;;;;;;;22.19;43.46;94667.78;4974630;28;20034;-62
2022/11/16 00:20:56;;;;;;;24.55;19.35;;;;;;;21.50;43.28;94537.50;4977148;28;20079;-66
2022/11/16 00:23:22;;;;;;;25.38;19.38;;;;;;;22.22;43.20;94645.03;4998413;28;20049;-64
2022/11/16 00:25:47;;;;;;;23.98;18.52;;;;;;;22.03;43.22;94611.59;5012916;28;20510;-64
2022/11/16 00:28:13;;;;;;;25.15;20.15;;;;;;;22.07;43.56;94633.78;4985960;28;20038;-67
2022/11/16 00:30:38;;;;;;;23.35;19.08;;;;;;;22.15;43.54;94634.72;4995729;28;20477;-66
2022/11/16 00:33:04;;;;;;;25.38;19.55;;;;;;;22.14;43.50;94635.94;4974950;28;20074;-66
2022/11/16 00:35:30;;;;;;;23.45;19.50;;;;;;;22.15;43.28;94682.91;4970093;28;20073;-61
2022/11/16 00:37:55;;;;;;;25.13;19.70;;;;;;;22.08;43.21;94624.41;4992285;28;20532;-63
2022/11/16 00:40:21;;;;;;;24.65;19.58;;;;;;;22.11;43.36;94634.25;4973978;28;20092;-65
2022/11/16 00:42:47;;;;;;;25.38;20.20;;;;;;;22.02;43.36;94629.16;4975525;28;20093;-62
2022/11/16 00:45:12;;;;;;;26.52;20.60;;;;;;;22.10;43.19;94632.75;4992126;28;20036;-63
2022/11/16 00:47:38;;;;;;;25.20;20.08;;;;;;;22.08;43.51;94629.84;4974904;28;20150;-63
2022/11/16 00:50:04;;;;;;;25.33;20.95;;;;;;;22.02;43.66;94653.63;4975793;28;20053;-64
2022/11/16 00:52:29;;;;;;;24.65;20.33;;;;;;;22.06;43.47;94626.91;4973121;28;20068;-65
2022/11/16 00:54:55;;;;;;;26.85;20.88;;;;;;;22.08;43.16;94629.84;5001791;28;20510;-64
2022/11/16 00:57:21;;;;;;;25.17;20.13;;;;;;;21.82;43.51;94587.34;5008862;28;20033;-62
2022/11/16 00:59:46;;;;;;;26.17;20.40;;;;;;;19.59;43.27;94280.50;4990503;28;20097;-64
2022/11/16 01:02:12;;;;;;;27.60;21.17;;;;;;;22.04;43.45;94610.34;4985422;28;20093;-64
2022/11/16 01:04:37;;;;;;;24.75;20.63;;;;;;;22.03;43.50;94611.59;4991046;28;20124;-65
2022/11/16 01:07:02;;;;;;;26.52;21.65;;;;;;;22.01;43.50;94608.63;4992979;28;20430;-66
2022/11/16 01:09:28;;;;;;;26.48;21.23;;;;;;;20.59;43.25;94388.47;4976376;28;20748;-62
2022/11/16 01:12:08;;;;;;;25.50;20.40;;;;;;;21.96;43.05;94601.28;4982557;28;20030;-67
2022/11/16 01:14:39;;;;;;;26.63;20.95;;;;;;;21.97;43.53;94586.44;4990700;28;20121;-61
2022/11/16 01:17:04;;;;;;;26.15;20.52;;;;;;;21.95;43.60;94591.63;4990853;28;20970;-66
2022/11/16 01:19:30;;;;;;;26.40;21.33;;;;;;;21.38;43.65;94508.94;4991923;28;20062;-64
2022/11/16 01:21:56;;;;;;;27.45;21.55;;;;;;;21.90;43.41;94593.69;4991456;28;20038;-63
2022/11/16 01:24:22;;;;;;;26.13;20.70;;;;;;;21.87;43.68;94575.66;4978437;28;20190;-63
2022/11/16 01:26:47;;;;;;;27.13;21.48;;;;;;;21.83;43.68;94580.66;4974285;28;20097;-66
2022/11/16 01:29:13;;;;;;;27.50;21.98;;;;;;;21.91;43.61;94595.16;4972897;28;20060;-62
2022/11/16 01:31:38;;;;;;;26.38;20.75;;;;;;;21.11;43.82;94488.19;4967301;28;20045;-64
2022/11/16 01:34:04;;;;;;;26.55;21.33;;;;;;;21.87;44.03;94597.41;4991883;28;20053;-67
2022/11/16 01:36:29;;;;;;;27.15;21.95;;;;;;;21.90;43.47;94590.97;4957874;28;20030;-65
2022/11/16 01:38:55;;;;;;;27.52;21.55;;;;;;;21.88;43.76;94593.47;4984230;28;20026;-63
2022/11/16 01:41:22;;;;;;;26.83;21.73;;;;;;;21.84;43.72;94604.63;4992522;28;20057;-64
2022/11/16 01:43:56;;;;;;;29.15;22.17;;;;;;;21.86;43.75;94583.09;4978601;28;20134;-66
2022/11/16 01:46:22;;;;;;;26.83;21.92;;;;;;;21.86;43.74;94585.81;4984990;28;20152;-64
2022/11/16 01:48:49;;;;;;;26.63;21.95;;;;;;;21.86;43.69;94590.53;4992791;28;20056;-66
2022/11/16 01:51:15;;;;;;;27.48;22.45;;;;;;;21.86;43.69;94585.09;4994319;28;20060;-63
2022/11/16 01:53:40;;;;;;;29.70;23.20;;;;;;;21.79;43.67;94586.38;4995412;28;20057;-66
2022/11/16 01:56:07;;;;;;;28.52;22.23;;;;;;;21.78;43.63;94584.16;4984454;28;20108;-65
2022/11/16 01:58:32;;;;;;;27.77;22.65;;;;;;;21.70;43.72;94561.50;4989249;28;20060;-66
2022/11/16 02:00:58;;;;;;;26.02;22.10;;;;;;;20.32;43.48;94356.88;4979150;28;20054;-64
2022/11/16 02:03:24;;;;;;;27.58;22.77;;;;;;;21.83;43.84;94569.78;4968475;28;20040;-66
2022/11/16 02:06:14;;;;;;;29.23;23.35;;;;;;;21.78;43.71;94562.41;4972721;28;20052;-67
2022/11/16 02:12:22;;;;;;;26.77;22.05;;;;;;;21.77;43.62;94552.81;4973509;28;20137;-66
2022/11/16 02:15:16;;;;;;;28.35;23.23;;;;;;;21.76;43.73;94554.03;4990896;28;20049;-65
2022/11/16 02:17:51;;;;;;;28.50;23.17;;;;;;;21.73;43.81;94552.34;4992067;28;20046;-63
2022/11/16 02:20:49;;;;;;;29.83;23.83;;;;;;;21.71;43.94;94546.69;4989216;28;20054;-67
2022/11/16 02:23:42;;;;;;;27.88;23.15;;;;;;;21.72;43.72;94559.00;4979001;28;20149;-66
2022/11/16 02:26:39;;;;;;;28.75;23.02;;;;;;;21.74;43.75;94551.09;4995405;28;20420;-63
2022/11/16 02:29:29;;;;;;;29.60;23.48;;;;;;;21.73;43.76;94555.06;4992270;28;20576;-67
2022/11/16 02:32:15;;;;;;;29.45;23.80;;;;;;;21.71;43.78;94552.84;4960977;28;20038;-63
2022/11/16 02:34:49;;;;;;;31.25;24.98;;;;;;;21.54;43.88;94527.09;4994517;28;20064;-62
2022/11/16 02:37:17;;;;;;;30.33;23.33;;;;;;;21.65;43.83;94548.72;4962647;28;20637;-67
2022/11/16 02:39:43;;;;;;;29.33;23.98;;;;;;;20.14;43.79;94319.56;4982608;28;20038;-66
2022/11/16 02:42:11;;;;;;;28.33;22.77;;;;;;;20.66;43.71;94390.63;4962570;28;20498;-67
2022/11/16 02:44:39;;;;;;;27.67;22.80;;;;;;;21.67;44.07;94552.41;4973418;28;20988;-66
2022/11/16 02:47:07;;;;;;;28.73;23.15;;;;;;;21.66;43.81;94539.34;4974402;28;20042;-66
2022/11/16 02:49:34;;;;;;;31.10;24.13;;;;;;;21.65;43.80;94544.00;4994697;28;20062;-67
2022/11/16 02:51:59;;;;;;;29.35;23.85;;;;;;;21.65;43.85;94554.88;4976778;28;20658;-63
2022/11/16 02:54:25;;;;;;;29.33;23.45;;;;;;;21.64;43.77;94553.44;4961905;28;20073;-63
2022/11/16 02:57:14;;;;;;;30.52;24.23;;;;;;;21.62;43.90;94545.03;4985757;28;20049;-67
2022/11/16 02:59:51;;;;;;;29.77;23.50;;;;;;;21.42;43.72;94515.56;4975824;28;20050;-64
2022/11/16 03:02:26;;;;;;;31.92;25.23;;;;;;;21.61;43.73;94545.53;4975547;28;20814;-65
2022/11/16 03:05:07;;;;;;;32.47;25.13;;;;;;;21.61;43.99;94531.97;4964962;28;20048;-64
2022/11/16 03:07:36;;;;;;;29.40;23.83;;;;;;;21.60;43.74;94530.50;4965505;28;20550;-67
2022/11/16 03:10:01;;;;;;;30.47;24.33;;;;;;;21.62;43.36;94533.44;4966807;28;20046;-62
2022/11/16 03:12:30;;;;;;;29.25;23.63;;;;;;;21.54;44.08;94513.53;4977308;28;20029;-65
2022/11/16 03:15:02;;;;;;;29.42;24.45;;;;;;;21.58;43.46;94527.53;4961215;28;20501;-64
2022/11/16 03:17:40;;;;;;;31.23;25.20;;;;;;;21.55;43.81;94526.59;4977269;28;20475;-66
2022/11/16 03:20:15;;;;;;;31.52;25.27;;;;;;;21.53;43.99;94515.47;4973783;28;20064;-65
2022/11/16 03:22:43;;;;;;;31.73;25.13;;;;;;;21.55;43.74;94528.56;4995045;28;20057;-64
2022/11/16 03:25:10;;;;;;;33.25;25.48;;;;;;;21.41;43.73;94513.34;4994263;28;20050;-67
2022/11/16 03:27:43;;;;;;;33.50;25.02;;;;;;;21.54;43.74;94527.09;4978505;28;20048;-66
2022/11/16 03:30:11;;;;;;;31.05;24.92;;;;;;;21.52;43.96;94524.13;4979380;28;20040;-64
2022/11/16 03:32:39;;;;;;;30.67;25.15;;;;;;;21.51;43.92;94517.25;4995952;28;20054;-63
2022/11/16 03:35:34;;;;;;;30.27;24.50;;;;;;;21.54;43.96;94532.53;4996470;28;20065;-64
2022/11/16 03:37:59;;;;;;;30.73;24.48;;;;;;;21.47;43.43;94511.34;4996157;28;20120;-61
2022/11/16 03:40:27;;;;;;;28.88;23.50;;;;;;;21.52;43.87;94516.00;4978236;28;20501;-67
2022/11/16 03:42:52;;;;;;;31.83;24.90;;;;;;;21.35;43.83;94493.66;4961037;28;20049;-66
2022/11/16 03:45:17;;;;;;;31.23;25.73;;;;;;;21.28;43.82;94491.50;4976012;28;20022;-67
2022/11/16 03:47:43;;;;;;;32.53;24.73;;;;;;;21.30;43.81;94496.41;4976639;28;20057;-63
2022/11/16 03:50:09;;;;;;;32.65;25.25;;;;;;;21.48;44.11;94529.13;4978522;28;20050;-63
2022/11/16 03:52:34;;;;;;;31.92;24.60;;;;;;;21.46;44.06;94547.91;4977786;28;20499;-67
2022/11/16 03:55:00;;;;;;;31.58;25.17;;;;;;;21.47;43.76;94527.66;4982533;28;20053;-64
2022/11/16 03:57:25;;;;;;;31.63;25.35;;;;;;;20.06;43.65;94313.22;4980375;28;20029;-68
2022/11/16 03:59:51;;;;;;;32.38;25.08;;;;;;;21.24;43.45;94482.91;4978907;28;20537;-63
2022/11/16 04:02:16;;;;;;;32.17;25.45;;;;;;;21.31;43.86;94490.47;4993635;28;20554;-65
2022/11/16 04:24:12;;;;;;;28.27;23.83;;;;;;;21.43;43.96;94519.00;4973910;28;20075;-67
2022/11/16 04:29:23;;;;;;;30.63;24.48;;;;;;;21.39;43.82;94488.69;4984093;28;20640;-65
2022/11/16 04:40:01;;;;;;;31.38;24.80;;;;;;;21.35;43.76;94463.78;4991043;28;20048;-63
2022/11/16 04:42:27;;;;;;;31.05;24.35;;;;;;;21.41;43.72;94475.34;4964608;28;20038;-67
2022/11/16 04:47:36;;;;;;;31.90;25.20;;;;;;;21.42;43.83;94482.25;4981103;28;20073;-62
2022/11/16 04:50:02;;;;;;;31.50;24.55;;;;;;;21.09;43.64;94455.41;4991931;28;20502;-64
2022/11/16 04:52:28;;;;;;;30.83;23.75;;;;;;;20.08;43.80;94288.31;4988734;28;20038;-66
2022/11/16 04:54:53;;;;;;;29.40;24.02;;;;;;;21.38;43.81;94481.78;4976043;28;20096;-67
2022/11/16 04:57:18;;;;;;;30.73;24.23;;;;;;;21.21;43.64;94478.50;4982950;28;20033;-62
2022/11/16 04:59:44;;;;;;;27.98;22.75;;;;;;;21.37;44.08;94496.59;4966331;28;20184;-66
2022/11/16 05:02:09;;;;;;;28.42;23.20;;;;;;;21.38;43.88;94468.19;4993252;28;20104;-66
2022/11/16 05:04:36;;;;;;;31.98;24.08;;;;;;;21.35;43.99;94471.94;4987534;28;20049;-64
2022/11/16 05:07:02;;;;;;;28.83;23.90;;;;;;;21.32;44.01;94456.66;4991036;28;20052;-66
2022/11/16 05:09:27;;;;;;;32.25;25.17;;;;;;;21.27;43.87;94433.03;4974806;28;20847;-71
2022/11/16 05:11:53;;;;;;;29.02;23.52;;;;;;;21.65;43.82;94472.66;4999561;28;20042;-62
2022/11/16 05:14:18;;;;;;;31.13;23.58;;;;;;;21.90;43.70;94463.19;4975550;28;20049;-62
2022/11/16 05:16:44;;;;;;;29.80;23.38;;;;;;;21.97;43.18;94469.56;4965563;28;20050;-66
2022/11/16 05:21:53;;;;;;;28.42;23.27;;;;;;;22.22;42.51;94460.09;4983094;28;20568;-65
2022/11/16 05:24:34;;;;;;;30.90;23.52;;;;;;;22.33;42.19;94465.41;4999846;28;20037;-66
2022/11/16 05:27:04;;;;;;;28.98;23.75;;;;;;;22.45;41.84;94466.69;4982407;28;20053;-69
2022/11/16 05:29:30;;;;;;;29.27;23.13;;;;;;;22.22;41.73;94432.91;4980773;28;20051;-69
2022/11/16 05:31:56;;;;;;;30.45;23.10;;;;;;;22.40;41.93;94462.09;4980489;28;20609;-67
2022/11/16 05:34:21;;;;;;;27.98;22.48;;;;;;;22.63;41.68;94461.25;4981843;28;20476;-64
2022/11/16 05:36:47;;;;;;;28.25;22.02;;;;;;;22.76;41.27;94468.72;4980952;28;20045;-69
2022/11/16 05:39:12;;;;;;;27.15;21.67;;;;;;;22.78;41.59;94452.59;4993959;28;20045;-68
2022/11/16 05:41:38;;;;;;;28.05;22.58;;;;;;;21.79;40.94;94303.00;5004217;28;20496;-70
2022/11/16 05:44:03;;;;;;;26.95;22.17;;;;;;;23.08;40.48;94451.91;4963516;28;20319;-69
2022/11/16 05:46:29;;;;;;;27.00;21.70;;;;;;;23.16;40.31;94463.63;4981892;28;20056;-61
2022/11/16 05:48:54;;;;;;;27.73;22.02;;;;;;;23.27;40.97;94468.16;4992760;28;20057;-67
2022/11/16 05:51:20;;;;;;;27.17;21.90;;;;;;;23.33;40.72;94466.81;4998005;28;20030;-67
2022/11/16 05:53:48;;;;;;;25.50;21.08;;;;;;;23.30;40.20;94451.50;4998700;28;20046;-64
2022/11/16 05:56:14;;;;;;;26.42;21.83;;;;;;;23.45;40.11;94462.63;4978126;28;20586;-66
2022/11/16 05:58:40;;;;;;;27.90;21.70;;;;;;;23.38;40.03;94463.28;4989041;28;20053;-66
2022/11/16 06:01:05;;;;;;;27.48;21.65;;;;;;;23.20;40.21;94436.09;4979379;28;20507;-66
2022/11/16 06:03:31;;;;;;;25.48;21.25;;;;;;;23.71;39.60;94468.16;4997562;28;20581;-66
2022/11/16 06:05:56;;;;;;;26.98;22.00;;;;;;;23.88;39.17;94466.56;4979965;28;20045;-62
2022/11/16 06:08:22;;;;;;;27.52;21.58;;;;;;;23.86;39.42;94464.34;4979074;28;20049;-64
2022/11/16 06:10:48;;;;;;;26.85;21.50;;;;;;;23.92;39.05;94459.53;4979948;28;20144;-68
2022/11/16 06:13:14;;;;;;;24.50;20.50;;;;;;;23.95;38.99;94471.38;4977710;28;20402;-65
2022/11/16 06:15:39;;;;;;;25.42;20.77;;;;;;;23.72;39.58;94469.59;4998071;28;20037;-63
2022/11/16 06:18:05;;;;;;;26.35;21.25;;;;;;;23.83;39.33;94496.69;4998307;28;20398;-67
2022/11/16 06:20:31;;;;;;;24.08;20.63;;;;;;;23.87;39.27;94465.84;4981269;28;20046;-65
2022/11/16 06:22:56;;;;;;;28.40;21.38;;;;;;;23.88;39.50;94467.31;4966365;28;20061;-63
2022/11/16 06:25:22;;;;;;;25.65;19.33;;;;;;;24.12;39.41;94469.06;4995983;28;20049;-66
2022/11/16 06:27:47;;;;;;;27.20;20.42;;;;;;;23.90;43.87;94469.47;4953330;28;20603;-64
2022/11/16 06:30:13;;;;;;;24.55;19.95;;;;;;;23.64;42.32;94436.06;4956916;28;20445;-66
2022/11/16 06:32:39;;;;;;;25.98;19.63;;;;;;;24.08;43.06;94466.66;4971506;28;20065;-67
2022/11/16 06:35:05;;;;;;;23.95;18.73;;;;;;;24.09;41.52;94465.38;4994914;28;20053;-64
2022/11/16 06:37:30;;;;;;;23.23;18.92;;;;;;;23.87;42.74;94465.84;4975105;28;20046;-65
2022/11/16 06:39:55;;;;;;;23.92;19.02;;;;;;;23.76;41.84;94492.56;4994131;28;20053;-67
2022/11/16 06:42:21;;;;;;;23.67;18.63;;;;;;;23.89;41.44;94474.22;4962671;28;20042;-62
2022/11/16 06:44:46;;;;;;;25.10;19.08;;;;;;;24.28;40.51;94465.97;4995552;28;20045;-67
2022/11/16 06:47:12;;;;;;;23.58;18.65;;;;;;;24.20;39.69;94448.78;5000028;28;20510;-67
2022/11/16 06:49:37;;;;;;;23.33;18.52;;;;;;;24.47;39.65;94466.59;4982806;28;20581;-62
2022/11/16 06:52:03;;;;;;;23.50;18.42;;;;;;;22.99;40.02;94278.03;4995758;28;20753;-68
2022/11/16 06:54:28;;;;;;;23.88;18.88;;;;;;;24.32;39.75;94458.22;4993230;28;20022;-64
2022/11/16 06:56:54;;;;;;;23.40;18.75;;;;;;;23.27;39.37;94277.47;4983452;28;20033;-63
2022/11/16 06:59:19;;;;;;;23.05;19.27;;;;;;;24.61;39.01;94459.84;4959178;28;20054;-65
2022/11/16 07:01:45;;;;;;;21.20;17.30;;;;;;;24.37;39.47;94462.84;4990967;28;20053;-65
2022/11/16 07:04:10;;;;;;;24.67;18.10;;;;;;;24.18;39.25;94410.38;4992465;28;20127;-64
2022/11/16 07:06:37;;;;;;;23.83;18.35;;;;;;;24.86;38.81;94465.19;4960151;28;20101;-65
2022/11/16 07:09:06;;;;;;;22.13;17.65;;;;;;;24.77;39.01;94461.44;4984594;28;20034;-63
2022/11/16 07:11:33;;;;;;;22.77;18.13;;;;;;;24.93;38.67;94453.59;4986951;28;20038;-64
2022/11/16 07:13:58;;;;;;;21.58;17.23;;;;;;;24.93;38.60;94453.59;4953595;28;20050;-63
2022/11/16 07:16:24;;;;;;;22.45;17.35;;;;;;;24.72;38.64;94421.34;4987003;28;22446;-65
2022/11/16 07:18:49;;;;;;;22.25;18.30;;;;;;;24.88;38.73;94457.19;4975722;28;20105;-64
2022/11/16 07:21:15;;;;;;;22.05;17.45;;;;;;;24.94;38.94;94460.53;4988351;28;20430;-65
2022/11/16 07:23:40;;;;;;;20.50;17.10;;;;;;;23.95;38.32;94333.03;4995789;28;20046;-65
2022/11/16 07:26:06;;;;;;;21.35;16.90;;;;;;;24.61;39.34;94454.38;4993842;28;20061;-64
2022/11/16 07:28:32;;;;;;;20.58;17.25;;;;;;;24.50;39.01;94427.34;4976371;28;20136;-66
2022/11/16 07:31:04;;;;;;;23.15;17.15;;;;;;;24.61;39.21;94443.44;4959438;28;20104;-64
2022/11/16 07:33:30;;;;;;;21.35;16.85;;;;;;;24.87;38.98;94450.28;4976818;28;20789;-65
2022/11/16 07:36:05;;;;;;;21.48;17.70;;;;;;;24.85;38.79;94447.31;4995055;28;20373;-63
2022/11/16 07:38:30;;;;;;;20.48;17.15;;;;;;;23.97;38.56;94284.13;4987805;28;20172;-65
2022/11/16 07:41:03;;;;;;;21.15;17.63;;;;;;;25.25;38.49;94437.69;4991261;28;20045;-64
2022/11/16 07:43:30;;;;;;;20.80;16.70;;;;;;;23.94;38.69;94312.44;4970907;28;20044;-65
2022/11/16 07:46:00;;;;;;;21.05;16.92;;;;;;;25.32;38.14;94447.97;4993401;28;20057;-65
2022/11/16 07:48:26;;;;;;;20.73;16.73;;;;;;;25.34;37.92;94459.09;4944399;28;20041;-63
2022/11/16 07:50:51;;;;;;;19.77;16.73;;;;;;;25.45;37.80;94425.97;4979182;28;20046;-64
2022/11/16 07:53:17;;;;;;;19.67;16.58;;;;;;;25.57;37.74;94438.81;4976727;28;20113;-65
2022/11/16 07:55:42;;;;;;;21.77;17.83;;;;;;;25.49;37.92;94437.31;4993426;28;20514;-66
2022/11/16 07:58:08;;;;;;;20.60;16.42;;;;;;;25.54;37.99;94434.44;4975896;28;20530;-65
2022/11/16 08:00:33;;;;;;;20.60;16.63;;;;;;;24.76;37.53;94290.69;4974860;28;20029;-63
2022/11/16 08:02:58;;;;;;;19.42;16.17;;;;;;;25.59;37.42;94432.81;4994625;28;20045;-66
2022/11/16 08:05:24;;;;;;;21.02;17.30;;;;;;;25.61;37.37;94422.09;4958710;28;20044;-67
2022/11/16 08:07:49;;;;;;;18.75;15.77;;;;;;;25.20;38.14;94413.22;4944229;28;20038;-64
2022/11/16 08:10:15;;;;;;;18.85;15.82;;;;;;;25.49;38.00;94427.09;4959691;28;20057;-69
2022/11/16 08:12:41;;;;;;;20.10;16.35;;;;;;;25.65;37.78;94417.78;4990083;28;20235;-66
2022/11/16 08:15:07;;;;;;;20.77;16.40;;;;;;;25.58;37.50;94376.69;4978218;28;20782;-64
2022/11/16 08:17:32;;;;;;;18.60;15.45;;;;;;;25.70;37.53;94410.69;4991632;28;20054;-65
2022/11/16 08:19:58;;;;;;;19.27;15.75;;;;;;;23.86;37.27;94120.06;4974993;28;20803;-66
2022/11/16 08:22:23;;;;;;;19.50;16.08;;;;;;;25.89;37.14;94396.19;4983095;28;20570;-67
2022/11/16 08:24:49;;;;;;;19.65;16.30;;;;;;;25.54;37.59;94374.28;4996134;28;20038;-66
2022/11/16 08:27:16;;;;;;;19.80;16.52;;;;;;;25.45;38.08;94401.38;4971320;28;20070;-65
2022/11/16 08:29:41;;;;;;;17.27;14.93;;;;;;;25.43;37.43;94369.09;4986840;28;20293;-64
2022/11/16 08:32:07;;;;;;;19.02;16.02;;;;;;;25.90;36.91;94389.47;4973471;28;20511;-66
2022/11/16 08:34:32;;;;;;;20.10;16.23;;;;;;;25.94;37.07;94395.28;4974012;28;20049;-66
2022/11/16 08:36:58;;;;;;;19.52;15.63;;;;;;;25.75;37.18;94390.66;4992318;28;20061;-65
2022/11/16 08:39:23;;;;;;;19.75;16.05;;;;;;;25.79;37.20;94399.25;4993622;28;20038;-63
2022/11/16 08:41:49;;;;;;;18.98;14.88;;;;;;;25.22;37.39;94323.97;4985476;28;20046;-69
2022/11/16 08:44:14;;;;;;;19.42;15.65;;;;;;;26.04;37.13;94382.56;4972367;28;20081;-67
2022/11/16 08:46:40;;;;;;;19.95;15.82;;;;;;;25.77;37.30;94379.88;4988777;28;20064;-65
2022/11/16 08:49:05;;;;;;;17.98;15.43;;;;;;;25.09;36.79;94274.88;4982697;28;20058;-66
2022/11/16 08:51:31;;;;;;;19.17;15.35;;;;;;;23.88;36.36;94052.81;4987806;28;20049;-67
2022/11/16 08:53:57;;;;;;;18.73;15.30;;;;;;;26.08;36.57;94372.00;4991951;28;20048;-64
2022/11/16 08:56:22;;;;;;;19.13;15.40;;;;;;;26.05;36.73;94386.78;4973115;28;20049;-64
2022/11/16 08:58:48;;;;;;;20.02;15.65;;;;;;;25.89;36.96;94368.84;4990992;28;20066;-67
2022/11/16 09:01:15;;;;;;;18.58;15.35;;;;;;;24.77;36.94;94189.09;4991018;28;20371;-64
2022/11/16 09:03:41;;;;;;;18.52;15.50;;;;;;;24.72;36.32;94168.13;4974177;28;20061;-71
2022/11/16 09:06:07;;;;;;;18.23;15.43;;;;;;;26.00;36.88;94387.66;4986397;28;20477;-67
2022/11/16 09:08:32;;;;;;;19.00;15.32;;;;;;;26.12;36.71;94382.59;4972110;28;20068;-65
2022/11/16 09:10:58;;;;;;;20.15;16.15;;;;;;;26.09;36.78;94378.94;4979148;28;20041;-67
2022/11/16 09:13:24;;;;;;;19.17;15.70;;;;;;;26.22;36.54;94376.06;4978974;28;20042;-65
2022/11/16 09:15:58;;;;;;;18.50;15.65;;;;;;;26.27;36.32;94377.91;4975543;28;20453;-65
2022/11/16 09:18:23;;;;;;;18.88;15.85;;;;;;;26.19;36.87;94366.22;4976954;28;20037;-66
2022/11/16 09:20:49;;;;;;;19.10;15.10;;;;;;;26.21;36.47;94363.66;4974846;28;20593;-66
2022/11/16 09:23:14;;;;;;;19.20;15.52;;;;;;;26.05;36.30;94340.25;4990316;28;20519;-67
2022/11/16 09:25:40;;;;;;;19.20;16.02;;;;;;;26.31;36.35;94367.38;4978932;28;20450;-67
2022/11/16 09:28:07;;;;;;;19.25;15.45;;;;;;;25.91;36.48;94291.69;4983179;28;20050;-69
2022/11/16 09:30:33;;;;;;;19.15;15.05;;;;;;;26.27;35.83;94302.00;4991545;28;20116;-66
2022/11/16 09:32:58;;;;;;;19.55;15.30;;;;;;;26.25;36.39;94325.72;4974058;28;20468;-66
2022/11/16 09:35:24;;;;;;;20.25;15.82;;;;;;;26.11;36.47;94315.44;4977061;28;20062;-64
2022/11/16 09:37:49;;;;;;;18.73;14.68;;;;;;;26.44;36.41;94320.66;4987111;28;20041;-66
2022/11/16 09:40:15;;;;;;;19.15;15.68;;;;;;;26.20;36.37;94307.44;4985595;28;20052;-67
2022/11/16 09:42:55;;;;;;;20.02;15.93;;;;;;;26.02;36.39;94313.97;4974209;28;20081;-64
2022/11/16 09:45:31;;;;;;;16.50;13.82;;;;;;;24.73;36.19;94084.22;4973108;28;20641;-67
2022/11/16 09:48:00;;;;;;;18.10;14.02;;;;;;;25.72;37.39;94309.66;4989558;28;20064;-64
2022/11/16 09:50:33;;;;;;;18.23;15.25;;;;;;;26.12;36.52;94301.22;4970362;28;20403;-71
2022/11/16 09:53:06;;;;;;;18.88;15.38;;;;;;;26.44;36.25;94304.22;4987813;28;20042;-68
2022/11/16 09:56:03;;;;;;;19.20;15.18;;;;;;;26.38;36.28;94295.44;4968471;28;20140;-64
2022/11/16 09:58:31;;;;;;;17.33;14.00;;;;;;;26.28;36.47;94291.81;4986850;28;20042;-70
2022/11/16 10:01:39;;;;;;;18.52;14.68;;;;;;;26.50;36.02;94285.59;4995179;28;20049;-71
2022/11/16 10:04:24;;;;;;;19.77;15.25;;;;;;;26.41;36.00;94308.03;4986670;28;20083;-66
2022/11/16 10:06:56;;;;;;;19.85;15.38;;;;;;;24.61;36.04;94012.09;4979885;28;20038;-65
2022/11/16 10:09:22;;;;;;;17.33;14.45;;;;;;;26.17;36.54;94270.19;4962829;28;20042;-63
2022/11/16 10:11:50;;;;;;;18.73;14.93;;;;;;;25.99;36.87;94268.56;4961369;28;20526;-69
2022/11/16 10:14:24;;;;;;;18.27;15.30;;;;;;;26.07;36.38;94233.72;4994687;28;20062;-67
2022/11/16 10:16:55;;;;;;;19.42;15.10;;;;;;;26.26;36.20;94261.44;4996710;28;20265;-70
2022/11/16 10:19:42;;;;;;;17.63;14.82;;;;;;;24.83;36.21;94039.47;4973808;28;20531;-66
2022/11/16 10:22:17;;;;;;;19.13;15.38;;;;;;;26.25;36.49;94248.31;4997195;28;20125;-66
2022/11/16 10:24:56;;;;;;;19.27;14.50;;;;;;;25.47;35.94;94100.84;4994946;28;20034;-66
2022/11/16 10:27:27;;;;;;;18.23;14.45;;;;;;;26.17;36.38;94237.34;4976365;28;20030;-64
2022/11/16 10:30:13;;;;;;;18.00;15.07;;;;;;;26.16;36.27;94255.06;4992916;28;20140;-68
2022/11/16 10:32:49;;;;;;;19.05;15.32;;;;;;;26.20;36.50;94230.78;4959901;28;20050;-69
2022/11/16 10:35:18;;;;;;;20.00;15.40;;;;;;;26.09;36.57;94224.97;4994160;28;20128;-67
2022/11/16 10:37:50;;;;;;;18.45;14.95;;;;;;;26.15;36.63;94223.50;4977003;28;21135;-65
2022/11/16 10:40:19;;;;;;;18.33;14.30;;;;;;;25.97;36.55;94208.16;4977002;28;20037;-62
2022/11/16 10:42:47;;;;;;;19.02;14.65;;;;;;;26.23;36.75;94218.75;4960145;28;20068;-65
2022/11/16 10:45:23;;;;;;;16.58;14.52;;;;;;;26.09;37.01;94241.38;4977215;28;20038;-67
2022/11/16 10:48:05;;;;;;;18.20;14.60;;;;;;;25.98;37.00;94198.69;4976328;28;20034;-67
2022/11/16 10:50:34;;;;;;;18.85;14.90;;;;;;;25.62;36.89;94133.66;4986336;28;20054;-66
2022/11/16 10:52:59;;;;;;;18.25;14.07;;;;;;;26.06;36.61;94221.28;4995127;28;20053;-62
2022/11/16 10:55:27;;;;;;;18.45;14.30;;;;;;;26.17;36.78;94201.78;4975040;28;20053;-65
2022/11/16 10:58:03;;;;;;;17.73;14.80;;;;;;;25.88;37.30;94197.03;4976633;28;20530;-67
2022/11/16 11:00:42;;;;;;;17.83;14.38;;;;;;;25.53;36.49;94088.47;4993448;28;20820;-67
2022/11/16 11:03:10;;;;;;;15.60;13.32;;;;;;;26.27;36.66;94187.03;4978636;28;20029;-67
2022/11/16 11:05:36;;;;;;;18.60;13.57;;;;;;;25.25;36.70;94025.03;4975808;28;20064;-67
2022/11/16 11:08:08;;;;;;;16.88;14.20;;;;;;;24.97;36.87;93995.06;4975183;28;20050;-66
2022/11/16 11:10:35;;;;;;;16.23;13.80;;;;;;;26.47;36.63;94204.53;4984103;28;20125;-66
2022/11/16 11:13:10;;;;;;;18.05;13.82;;;;;;;26.69;35.97;94170.94;4955547;28;20506;-72
2022/11/16 11:15:36;;;;;;;15.98;13.52;;;;;;;26.33;36.60;94156.75;4990978;28;20049;-63
2022/11/16 11:18:21;;;;;;;17.88;14.07;;;;;;;26.59;36.42;94168.03;4975469;28;20037;-67
2022/11/16 11:20:51;;;;;;;17.77;14.13;;;;;;;26.85;35.92;94162.13;4960881;28;20050;-68
2022/11/16 11:23:21;;;;;;;18.92;13.82;;;;;;;26.90;35.62;94142.03;4954759;28;20099;-65
2022/11/16 11:25:56;;;;;;;17.23;13.65;;;;;;;26.78;36.19;94141.66;4977275;28;20852;-65
2022/11/16 11:28:30;;;;;;;16.48;13.00;;;;;;;26.81;35.82;94124.13;4957610;28;20446;-63
2022/11/16 11:30:59;;;;;;;16.52;13.18;;;;;;;27.01;35.68;94144.38;4961335;28;20041;-67
2022/11/16 11:33:29;;;;;;;17.35;12.85;;;;;;;26.94;35.68;94129.41;4997316;28;20030;-66
2022/11/16 11:36:06;;;;;;;16.33;13.20;;;;;;;27.26;35.79;94134.94;4977886;28;20476;-63
2022/11/16 11:38:32;;;;;;;16.17;13.38;;;;;;;26.92;35.64;94074.44;4974776;28;20042;-65
2022/11/16 11:40:59;;;;;;;17.02;13.15;;;;;;;27.09;35.91;94112.91;4959869;28;20052;-68
2022/11/16 11:43:26;;;;;;;16.20;12.65;;;;;;;26.96;36.02;94082.28;4957831;28;20107;-67
2022/11/16 11:46:01;;;;;;;17.67;13.57;;;;;;;26.99;35.90;94125.72;4975609;28;20038;-68
2022/11/16 11:48:41;;;;;;;16.02;12.57;;;;;;;26.76;36.34;94120.88;4980619;28;20069;-63
2022/11/16 11:51:35;;;;;;;16.67;12.95;;;;;;;26.63;36.14;94123.81;4987516;28;20363;-68
2022/11/16 11:54:01;;;;;;;18.80;14.43;;;;;;;26.21;37.21;94106.34;4960951;28;20816;-68
2022/11/16 11:56:29;;;;;;;15.90;13.07;;;;;;;26.24;36.94;94105.25;4966303;28;20124;-63
2022/11/16 11:58:55;;;;;;;16.70;13.30;;;;;;;26.18;37.24;94096.50;4984528;28;20072;-66
2022/11/16 12:01:42;;;;;;;16.60;12.95;;;;;;;26.48;36.72;94093.75;4973031;28;20502;-68
2022/11/16 12:04:27;;;;;;;15.05;12.40;;;;;;;26.46;36.76;94099.06;4991827;28;20129;-68